Time;durP1;ratioP1;P1;durP2;ratioP2;P2;SDS_P1;SDS_P2;PMS_P1;PMS_P2;Temp;Humidity;BMP_temperature;BMP_pressure;BME280_temperature;BME280_humidity;BME280_pressure;Samples;Min_cycle;Max_cycle;Signal;HPM_P1;HPM_P2
2023/05/03 00:02:01;;;;;;;1.45;0.88;;;;;;;0.01;0.00;59042.03;10538101;28;20066;-74
2023/05/03 00:07:02;;;;;;;3.03;0.77;;;;;;;0.01;0.00;59042.03;10560955;28;20036;-74
2023/05/03 00:12:05;;;;;;;0.40;0.40;;;;;;;0.01;0.00;59042.03;10568669;28;20532;-74
2023/05/03 00:17:06;;;;;;;2.28;1.50;;;;;;;0.01;0.00;59042.03;10559614;27;20040;-74
2023/05/03 00:22:08;;;;;;;0.90;0.57;;;;;;;0.01;0.00;59042.03;10559753;28;20043;-74
2023/05/03 00:27:09;;;;;;;0.50;0.32;;;;;;;0.01;0.00;59042.03;10544836;28;20040;-74
2023/05/03 00:32:11;;;;;;;1.23;0.47;;;;;;;0.01;0.00;59042.03;10562562;28;20040;-74
2023/05/03 00:37:13;;;;;;;0.60;0.43;;;;;;;0.01;0.00;59042.03;10550862;28;20048;-74
2023/05/03 00:42:15;;;;;;;2.63;0.77;;;;;;;0.01;0.00;59042.03;10559798;28;20044;-74
2023/05/03 00:47:17;;;;;;;1.48;0.63;;;;;;;0.01;0.00;59042.03;10565216;28;20057;-74
2023/05/03 00:52:19;;;;;;;1.25;0.65;;;;;;;0.01;0.00;59042.03;10553378;28;20097;-74
2023/05/03 00:57:22;;;;;;;2.55;1.38;;;;;;;0.01;0.00;59042.03;10549779;28;20065;-74
2023/05/03 01:02:25;;;;;;;1.25;0.88;;;;;;;0.01;0.00;59042.03;10565934;28;20039;-74
2023/05/03 01:07:50;;;;;;;0.98;0.88;;;;;;;0.01;0.00;59042.03;10554268;28;20454;-73
2023/05/03 01:12:57;;;;;;;1.38;0.63;;;;;;;0.01;0.00;59042.03;10556974;27;20123;-73
2023/05/03 01:18:09;;;;;;;0.73;0.40;;;;;;;0.01;0.00;59042.03;10557884;27;20131;-74
2023/05/03 01:23:29;;;;;;;12.43;0.80;;;;;;;0.01;0.00;59042.03;10539866;28;20067;-74
2023/05/03 01:28:36;;;;;;;0.60;0.47;;;;;;;0.01;0.00;59042.03;10552396;28;20051;-74
2023/05/03 01:33:52;;;;;;;0.85;0.73;;;;;;;0.01;0.00;59042.03;10556532;28;20040;-74
2023/05/03 01:38:54;;;;;;;0.57;0.52;;;;;;;0.01;0.00;59042.03;10556665;28;20039;-73
2023/05/03 01:43:56;;;;;;;3.10;1.33;;;;;;;0.01;0.00;59042.03;10540511;27;20051;-74
2023/05/03 01:48:57;;;;;;;0.82;0.68;;;;;;;0.01;0.00;59042.03;10555870;28;20035;-74
2023/05/03 01:53:59;;;;;;;3.60;0.85;;;;;;;0.01;0.00;59042.03;10549372;27;20040;-74
2023/05/03 01:59:01;;;;;;;1.02;0.60;;;;;;;0.01;0.00;59042.03;10554365;28;20035;-74
2023/05/03 02:04:02;;;;;;;0.65;0.50;;;;;;;0.01;0.00;59042.03;10556170;28;20047;-74
2023/05/03 02:09:04;;;;;;;0.85;0.57;;;;;;;0.01;0.00;59042.03;10555545;28;20126;-74
2023/05/03 02:14:06;;;;;;;0.32;0.32;;;;;;;0.01;0.00;59042.03;10556052;28;20052;-74
2023/05/03 02:19:09;;;;;;;1.83;1.27;;;;;;;0.01;0.00;59042.03;10562527;28;20036;-73
2023/05/03 02:24:10;;;;;;;0.77;0.40;;;;;;;0.01;0.00;59042.03;10537663;28;20088;-74
2023/05/03 02:29:12;;;;;;;0.55;0.55;;;;;;;0.01;0.00;59042.03;10545215;28;20092;-74
2023/05/03 02:34:14;;;;;;;1.55;0.90;;;;;;;0.01;0.00;59042.03;10547429;27;20068;-74
2023/05/03 02:39:16;;;;;;;0.50;0.50;;;;;;;0.01;0.00;59042.03;10533571;28;20517;-74
2023/05/03 02:44:18;;;;;;;1.02;0.65;;;;;;;0.01;0.00;59042.03;10539182;28;20051;-74
2023/05/03 02:49:20;;;;;;;1.60;0.57;;;;;;;0.01;0.00;59042.03;10529038;28;20144;-74
2023/05/03 02:54:22;;;;;;;2.60;1.13;;;;;;;0.01;0.00;59042.03;10559761;28;20036;-75
2023/05/03 02:59:25;;;;;;;1.95;1.10;;;;;;;0.01;0.00;59042.03;10575199;27;20087;-74
2023/05/03 03:04:27;;;;;;;0.65;0.65;;;;;;;0.01;0.00;59042.03;10550633;28;20043;-74
2023/05/03 03:09:29;;;;;;;0.75;0.55;;;;;;;0.01;0.00;59042.03;10555608;28;20106;-74
2023/05/03 03:14:30;;;;;;;3.10;0.75;;;;;;;0.01;0.00;59042.03;10551889;28;20040;-73
2023/05/03 03:19:33;;;;;;;2.13;0.77;;;;;;;0.01;0.00;59042.03;10561775;27;20036;-74
2023/05/03 03:24:36;;;;;;;1.88;0.75;;;;;;;0.01;0.00;59042.03;10548317;28;20090;-74
2023/05/03 03:29:39;;;;;;;0.93;0.57;;;;;;;0.01;0.00;59042.03;10546972;28;20066;-74
2023/05/03 03:34:42;;;;;;;1.25;0.68;;;;;;;0.01;0.00;59042.03;10533944;28;20059;-74
2023/05/03 03:39:43;;;;;;;1.15;0.82;;;;;;;0.01;0.00;59042.03;10545277;28;20808;-74
2023/05/03 03:44:45;;;;;;;3.75;0.55;;;;;;;0.01;0.00;59042.03;10560078;28;20032;-74
2023/05/03 03:49:47;;;;;;;0.63;0.57;;;;;;;0.01;0.00;59042.03;10560776;27;20568;-74
2023/05/03 03:54:49;;;;;;;0.65;0.63;;;;;;;0.01;0.00;59042.03;10541870;28;20044;-74
2023/05/03 03:59:51;;;;;;;1.85;1.05;;;;;;;0.01;0.00;59042.03;10567998;28;20040;-74
2023/05/03 04:04:52;;;;;;;2.25;1.13;;;;;;;0.01;0.00;59042.03;10562617;28;20408;-74
2023/05/03 04:09:55;;;;;;;1.13;0.85;;;;;;;0.01;0.00;59042.03;10559869;28;20526;-74
2023/05/03 04:14:58;;;;;;;0.95;0.50;;;;;;;0.01;0.00;59042.03;10535170;28;20040;-74
2023/05/03 04:20:05;;;;;;;0.63;0.47;;;;;;;0.01;0.00;59042.03;10540968;28;20456;-74
2023/05/03 04:25:12;;;;;;;1.15;0.80;;;;;;;0.01;0.00;59042.03;10534203;28;20085;-74
2023/05/03 04:30:17;;;;;;;0.80;0.37;;;;;;;0.01;0.00;59042.03;10550337;28;20536;-74
2023/05/03 04:35:22;;;;;;;3.60;1.25;;;;;;;0.01;0.00;59042.03;10550305;28;20545;-74
2023/05/03 04:40:25;;;;;;;1.02;0.60;;;;;;;0.01;0.00;59042.03;10549377;28;20050;-74
2023/05/03 04:45:35;;;;;;;1.63;0.68;;;;;;;0.01;0.00;59042.03;10549854;28;20047;-74
2023/05/03 04:50:36;;;;;;;1.20;0.95;;;;;;;0.01;0.00;59042.03;10549114;28;20082;-74
2023/05/03 04:55:41;;;;;;;0.95;0.80;;;;;;;0.01;0.00;59042.03;10583638;27;20387;-74
2023/05/03 05:00:45;;;;;;;1.10;0.80;;;;;;;0.01;0.00;59042.03;10549255;28;20086;-74
2023/05/03 05:05:52;;;;;;;1.43;0.83;;;;;;;0.01;0.00;59042.03;10548968;28;20526;-74
2023/05/03 05:10:54;;;;;;;1.88;0.85;;;;;;;0.01;0.00;59042.03;10582663;27;20050;-73
2023/05/03 05:16:00;;;;;;;1.15;0.82;;;;;;;0.01;0.00;59042.03;10548174;28;20074;-74
2023/05/03 05:21:03;;;;;;;1.00;0.80;;;;;;;0.01;0.00;59042.03;10548675;28;20043;-74
2023/05/03 05:26:06;;;;;;;2.75;1.00;;;;;;;0.01;0.00;59042.03;10548382;28;20055;-74
2023/05/03 05:31:10;;;;;;;5.30;1.80;;;;;;;0.01;0.00;59042.03;10565433;28;20071;-74
2023/05/03 05:36:13;;;;;;;1.38;1.00;;;;;;;0.01;0.00;59042.03;10565367;28;20414;-75
2023/05/03 05:41:15;;;;;;;1.23;0.88;;;;;;;0.01;0.00;59042.03;10548244;28;20464;-74
2023/05/03 05:46:20;;;;;;;2.45;1.20;;;;;;;0.01;0.00;59042.03;10566731;28;20053;-74
2023/05/03 05:51:23;;;;;;;1.55;0.85;;;;;;;0.01;0.00;59042.03;10574440;27;20059;-74
2023/05/03 05:56:25;;;;;;;2.00;1.13;;;;;;;0.01;0.00;59042.03;10581608;27;20058;-74
2023/05/03 06:01:27;;;;;;;1.52;0.90;;;;;;;0.01;0.00;59042.03;10579583;27;20058;-74
2023/05/03 06:06:29;;;;;;;1.55;0.75;;;;;;;0.01;0.00;59042.03;10549954;28;20039;-74
2023/05/03 06:11:32;;;;;;;1.80;0.98;;;;;;;0.01;0.00;59042.03;10581290;27;20051;-74
2023/05/03 06:16:37;;;;;;;1.42;0.90;;;;;;;0.01;0.00;59042.03;10563924;28;20040;-74
2023/05/03 06:21:39;;;;;;;0.77;0.60;;;;;;;0.01;0.00;59042.03;10546307;28;20053;-73
2023/05/03 06:26:40;;;;;;;1.75;1.17;;;;;;;0.01;0.00;59042.03;10564389;28;20073;-73
2023/05/03 06:31:43;;;;;;;2.15;0.85;;;;;;;0.01;0.00;59042.03;10576928;27;20611;-73
2023/05/03 06:36:46;;;;;;;0.98;0.73;;;;;;;0.01;0.00;59042.03;10575770;27;20392;-73
2023/05/03 06:41:48;;;;;;;1.45;1.00;;;;;;;0.01;0.00;59042.03;10574770;27;20422;-74
2023/05/03 06:46:51;;;;;;;0.57;0.50;;;;;;;0.01;0.00;59042.03;10545353;28;20050;-73
2023/05/03 06:51:52;;;;;;;0.82;0.60;;;;;;;0.01;0.00;59042.03;10546085;28;20047;-73
2023/05/03 06:56:54;;;;;;;3.40;1.10;;;;;;;0.01;0.00;59042.03;10546050;28;20038;-74
2023/05/03 07:01:56;;;;;;;2.20;0.65;;;;;;;0.00;0.00;74347.41;10564536;28;20070;-73
2023/05/03 07:06:57;;;;;;;2.72;0.85;;;;;;;0.00;0.00;75075.25;10555186;28;20119;-73
2023/05/03 07:11:59;;;;;;;0.65;0.50;;;;;;;0.00;0.00;75073.75;10563627;28;20040;-73
2023/05/03 07:17:01;;;;;;;1.48;0.75;;;;;;;0.00;0.00;75082.91;10579126;27;20039;-74
2023/05/03 07:22:03;;;;;;;0.43;0.40;;;;;;;0.00;0.00;75070.69;10605816;28;20043;-73
2023/05/03 07:27:04;;;;;;;10.68;2.00;;;;;;;0.00;0.00;75064.59;10606863;27;20039;-73
2023/05/03 07:32:07;;;;;;;1.00;0.57;;;;;;;0.00;0.00;75047.81;10606473;27;20517;-74
2023/05/03 07:37:09;;;;;;;0.68;0.52;;;;;;;0.00;0.00;75035.59;10605709;27;20479;-74
2023/05/03 07:42:10;;;;;;;1.77;0.70;;;;;;;0.00;0.00;75038.66;10606005;27;20051;-74
2023/05/03 07:47:12;;;;;;;1.60;0.60;;;;;;;0.00;0.00;75027.97;10605098;27;20046;-73
2023/05/03 07:52:13;;;;;;;0.35;0.35;;;;;;;0.00;0.00;75058.47;10605600;27;20047;-74
2023/05/03 07:57:15;;;;;;;0.57;0.52;;;;;;;0.00;0.00;75061.53;10606790;27;20031;-73
2023/05/03 08:02:16;;;;;;;1.55;0.70;;;;;;;0.00;0.00;75066.13;10570598;27;20059;-74
2023/05/03 08:07:19;;;;;;;1.50;0.70;;;;;;;0.00;0.00;75037.13;10605810;28;20043;-74
2023/05/03 08:12:20;;;;;;;1.67;0.70;;;;;;;0.00;0.00;75015.75;10587049;27;20399;-74
2023/05/03 08:17:22;;;;;;;1.17;0.65;;;;;;;0.00;0.00;75008.13;10577194;27;20040;-74
2023/05/03 08:22:25;;;;;;;1.17;0.57;;;;;;;0.00;0.00;75002.03;10537858;28;20044;-74
2023/05/03 08:27:27;;;;;;;4.53;0.93;;;;;;;0.00;0.00;75018.81;10551455;28;20199;-74
2023/05/03 08:32:29;;;;;;;1.27;0.70;;;;;;;0.00;0.00;75006.59;10561848;28;20071;-75
2023/05/03 08:37:36;;;;;;;1.95;1.08;;;;;;;0.00;0.00;75024.91;10561762;28;20122;-73
2023/05/03 08:42:40;;;;;;;1.70;0.90;;;;;;;0.00;0.00;75002.03;10568764;28;20055;-74
2023/05/03 08:47:44;;;;;;;0.98;0.70;;;;;;;0.00;0.00;74991.34;10553227;28;20036;-73
2023/05/03 08:52:46;;;;;;;1.00;0.40;;;;;;;0.00;0.00;74982.19;10546959;28;20042;-74
2023/05/03 08:57:48;;;;;;;0.50;0.50;;;;;;;0.00;0.00;74969.97;10570130;28;20052;-74
2023/05/03 09:02:50;;;;;;;2.42;0.90;;;;;;;0.00;0.00;74957.78;10550903;28;20146;-74
2023/05/03 09:08:06;;;;;;;0.98;0.60;;;;;;;0.00;0.00;74939.47;10557051;28;20144;-74
2023/05/03 09:13:10;;;;;;;0.50;0.50;;;;;;;0.00;0.00;75014.22;10557195;28;20051;-74
2023/05/03 09:18:15;;;;;;;0.88;0.73;;;;;;;0.00;0.00;74979.13;10567761;28;20036;-73
2023/05/03 09:23:19;;;;;;;1.52;0.60;;;;;;;0.00;0.00;74960.81;10566805;28;20454;-74
2023/05/03 09:28:21;;;;;;;1.60;0.65;;;;;;;0.00;0.00;74948.63;10566455;28;20507;-74
2023/05/03 09:33:29;;;;;;;2.08;0.90;;;;;;;0.00;0.00;74937.94;10567460;28;20507;-74
2023/05/03 09:38:33;;;;;;;0.65;0.60;;;;;;;0.00;0.00;74937.94;10566779;28;20050;-74
2023/05/03 09:43:46;;;;;;;0.95;0.47;;;;;;;0.00;0.00;74924.19;10557506;27;20048;-75
2023/05/03 09:48:49;;;;;;;4.40;1.05;;;;;;;0.01;0.00;59042.03;10564892;28;20043;-73
2023/05/03 09:53:51;;;;;;;1.98;0.80;;;;;;;0.01;0.00;59042.03;10567060;28;20051;-75
2023/05/03 09:58:53;;;;;;;1.40;0.80;;;;;;;0.00;0.00;74924.19;10566435;28;20127;-75
2023/05/03 10:03:56;;;;;;;1.27;0.90;;;;;;;0.00;0.00;74887.59;10565469;28;20050;-74
2023/05/03 10:09:32;;;;;;;3.63;0.82;;;;;;;0.00;0.00;74870.78;10566301;28;20040;-74
2023/05/03 10:14:35;;;;;;;1.70;0.88;;;;;;;0.00;0.00;74870.78;10563670;28;20609;-74
2023/05/03 10:19:45;;;;;;;1.13;0.90;;;;;;;0.00;0.00;74843.34;10555586;28;20441;-74
2023/05/03 10:24:56;;;;;;;2.40;0.98;;;;;;;0.00;0.00;74866.22;10563020;27;20435;-75
2023/05/03 10:29:57;;;;;;;2.05;0.80;;;;;;;0.00;0.00;74852.50;10565338;27;20042;-74
2023/05/03 10:35:02;;;;;;;1.73;1.00;;;;;;;0.00;0.00;74852.50;10565532;28;20089;-75
2023/05/03 10:40:12;;;;;;;2.08;1.00;;;;;;;0.00;0.00;74724.31;10546022;28;20044;-75
2023/05/03 10:45:25;;;;;;;0.60;0.60;;;;;;;0.00;0.00;74754.84;10596122;27;20062;-75
2023/05/03 10:50:27;;;;;;;1.20;0.70;;;;;;;0.00;0.00;74768.56;10599702;27;20088;-75
2023/05/03 10:55:29;;;;;;;1.10;0.70;;;;;;;0.00;0.00;74713.63;10591444;27;20782;-75
2023/05/03 11:00:43;;;;;;;0.60;0.60;;;;;;;0.00;0.00;74658.69;10588431;27;20421;-75
2023/05/03 11:05:46;;;;;;;2.35;0.80;;;;;;;0.00;0.00;74712.09;10580721;27;20043;-75
2023/05/03 11:10:55;;;;;;;1.73;0.77;;;;;;;0.00;0.00;74696.84;10598370;27;20050;-75
2023/05/03 11:15:57;;;;;;;1.33;0.80;;;;;;;0.00;0.00;74626.66;10596982;27;20043;-75
2023/05/03 11:21:00;;;;;;;1.90;0.88;;;;;;;0.00;0.00;74605.28;10579510;28;20043;-75
2023/05/03 11:26:05;;;;;;;1.30;0.85;;;;;;;0.00;0.00;74524.41;10581847;28;20054;-75
2023/05/03 11:31:12;;;;;;;1.33;0.88;;;;;;;0.00;0.00;74500.00;10555421;27;20388;-75
2023/05/03 11:36:13;;;;;;;2.08;0.85;;;;;;;0.00;0.00;74487.81;10585322;28;20049;-75
2023/05/03 11:41:16;;;;;;;1.77;1.10;;;;;;;0.00;0.00;74550.38;10598330;27;20050;-75
2023/05/03 11:46:27;;;;;;;3.95;1.05;;;;;;;0.00;0.00;74532.06;10576118;28;20084;-75
2023/05/03 11:51:30;;;;;;;3.58;0.80;;;;;;;0.00;0.00;74539.69;10570894;28;20062;-75
2023/05/03 11:56:34;;;;;;;1.83;0.90;;;;;;;0.00;0.00;74448.13;10590181;28;20063;-76
2023/05/03 12:01:36;;;;;;;1.98;0.95;;;;;;;0.00;0.00;74451.19;10586757;27;20718;-75
2023/05/03 12:06:37;;;;;;;0.80;0.70;;;;;;;0.00;0.00;74475.59;10598037;27;20563;-75
2023/05/03 12:11:41;;;;;;;1.05;0.90;;;;;;;0.00;0.00;74417.59;10607721;27;20063;-75
2023/05/03 12:16:48;;;;;;;1.25;0.85;;;;;;;0.00;0.00;74489.31;10606532;27;20655;-75
2023/05/03 12:21:51;;;;;;;2.13;1.02;;;;;;;0.00;0.00;74487.81;10586780;27;20115;-75
2023/05/03 12:27:13;;;;;;;2.13;1.10;;;;;;;0.00;0.00;74477.13;10596731;27;20063;-75
2023/05/03 12:32:15;;;;;;;1.73;1.05;;;;;;;0.00;0.00;74515.25;10609711;27;20047;-76
2023/05/03 12:37:17;;;;;;;1.67;1.02;;;;;;;0.00;0.00;74463.38;10583328;27;20035;-75
2023/05/03 12:42:22;;;;;;;2.40;0.75;;;;;;;0.00;0.00;74413.03;10607174;27;20487;-75
2023/05/03 12:47:25;;;;;;;4.50;0.88;;;;;;;0.00;0.00;74422.19;10571176;27;20053;-75
2023/05/03 12:52:33;;;;;;;1.20;0.80;;;;;;;0.00;0.00;74385.56;10592361;27;20084;-75
2023/05/03 12:57:39;;;;;;;2.22;0.80;;;;;;;0.00;0.00;74396.25;10577390;27;20142;-76
2023/05/03 13:02:42;;;;;;;2.70;1.42;;;;;;;0.00;0.00;74422.19;10591188;27;20112;-75
2023/05/03 13:07:47;;;;;;;1.58;0.80;;;;;;;0.00;0.00;74416.09;10587060;27;20040;-75
2023/05/03 13:12:57;;;;;;;1.75;0.98;;;;;;;0.00;0.00;74438.97;10572549;27;20065;-76
2023/05/03 13:18:00;;;;;;;1.15;0.85;;;;;;;0.00;0.00;74414.56;10594369;27;20122;-76
2023/05/03 13:23:03;;;;;;;3.03;1.02;;;;;;;0.00;0.00;74373.34;10578496;27;20054;-76
2023/05/03 13:28:04;;;;;;;2.40;1.05;;;;;;;0.00;0.00;74393.19;10600737;27;20035;-76
2023/05/03 13:33:07;;;;;;;2.00;1.17;;;;;;;0.00;0.00;74376.41;10593048;27;20046;-76
2023/05/03 13:38:08;;;;;;;1.85;1.08;;;;;;;0.00;0.00;74368.78;10602158;27;20406;-76
2023/05/03 13:43:10;;;;;;;3.70;1.55;;;;;;;0.00;0.00;74382.50;10589230;27;20043;-76
2023/05/03 13:48:11;;;;;;;1.50;0.90;;;;;;;0.00;0.00;74377.94;10581361;27;20039;-76
2023/05/03 13:53:19;;;;;;;2.72;1.35;;;;;;;0.00;0.00;74396.25;10592559;27;20123;-76
2023/05/03 13:58:21;;;;;;;2.10;1.20;;;;;;;0.00;0.00;74384.03;10599734;27;20035;-76
2023/05/03 14:03:23;;;;;;;6.53;1.02;;;;;;;0.00;0.00;74339.78;10577585;27;20039;-76
2023/05/03 14:08:24;;;;;;;2.03;0.90;;;;;;;0.00;0.00;74368.78;10586525;27;20048;-76
2023/05/03 14:13:27;;;;;;;1.55;0.98;;;;;;;0.00;0.00;74385.56;10580888;27;20414;-75
2023/05/03 14:18:35;;;;;;;2.77;1.10;;;;;;;0.00;0.00;74355.03;10591744;27;20023;-75
2023/05/03 14:23:37;;;;;;;1.48;1.00;;;;;;;0.00;0.00;74335.22;10589695;27;20548;-75
2023/05/03 14:28:39;;;;;;;2.40;1.33;;;;;;;0.00;0.00;74341.31;10579316;27;20510;-76
2023/05/03 14:33:41;;;;;;;2.05;1.30;;;;;;;0.00;0.00;74416.09;10590871;27;20062;-75
2023/05/03 14:38:42;;;;;;;1.63;0.90;;;;;;;0.00;0.00;74411.50;10578046;27;20047;-75
2023/05/03 14:43:44;;;;;;;4.22;1.35;;;;;;;0.00;0.00;74390.16;10598241;27;20157;-75
2023/05/03 14:48:46;;;;;;;7.85;1.45;;;;;;;0.00;0.00;74368.78;10580228;27;20039;-77
2023/05/03 14:53:47;;;;;;;2.10;1.15;;;;;;;0.00;0.00;74400.81;10562266;27;20130;-76
2023/05/03 14:58:49;;;;;;;2.00;1.25;;;;;;;0.00;0.00;74348.94;10556461;27;20035;-76
2023/05/03 15:03:51;;;;;;;4.28;1.30;;;;;;;0.00;0.00;74335.22;10598378;27;20066;-77
2023/05/03 15:08:53;;;;;;;3.60;1.10;;;;;;;0.00;0.00;74391.66;10544237;27;20035;-77
2023/05/03 15:13:55;;;;;;;2.28;1.40;;;;;;;0.00;0.00;74381.00;10587897;27;20050;-77
2023/05/03 15:18:58;;;;;;;3.67;1.17;;;;;;;0.00;0.00;74419.13;10566567;27;20050;-77
2023/05/03 15:23:59;;;;;;;3.50;1.20;;;;;;;0.00;0.00;74393.19;10569297;27;20043;-76
2023/05/03 15:29:01;;;;;;;1.90;1.15;;;;;;;0.00;0.00;74391.66;10575904;27;20046;-77
2023/05/03 15:34:03;;;;;;;3.42;1.40;;;;;;;0.00;0.00;74374.88;10583596;27;20170;-77
2023/05/03 15:39:05;;;;;;;5.20;1.20;;;;;;;0.00;0.00;74310.78;10578455;27;20656;-76
2023/05/03 15:44:08;;;;;;;2.45;1.25;;;;;;;0.00;0.00;74443.56;10592546;27;20050;-76
2023/05/03 15:49:10;;;;;;;3.22;1.65;;;;;;;0.00;0.00;74376.41;10585308;27;20041;-76
2023/05/03 15:54:12;;;;;;;2.42;1.33;;;;;;;0.00;0.00;74431.34;10589672;27;20039;-76
2023/05/03 15:59:14;;;;;;;2.25;1.10;;;;;;;0.00;0.00;74371.84;10566762;27;20249;-77
2023/05/03 16:04:16;;;;;;;1.52;1.10;;;;;;;0.00;0.00;74377.94;10589110;27;20043;-77
2023/05/03 16:09:18;;;;;;;2.25;1.13;;;;;;;0.00;0.00;74365.72;10610021;27;20042;-77
2023/05/03 16:14:21;;;;;;;2.97;1.50;;;;;;;0.00;0.00;74370.31;10601065;27;20127;-77
2023/05/03 16:19:22;;;;;;;2.08;1.30;;;;;;;0.00;0.00;74365.72;10589944;27;20036;-77
2023/05/03 16:24:24;;;;;;;2.47;1.50;;;;;;;0.00;0.00;74374.88;10600640;27;20045;-77
2023/05/03 16:29:27;;;;;;;6.75;1.42;;;;;;;0.00;0.00;74377.94;10603892;27;20110;-77
2023/05/03 16:34:28;;;;;;;;;;;;;;;0.00;0.00;74414.56;10584880;27;20035;-76
2023/05/03 16:39:31;;;;;;;1.75;1.17;;;;;;;0.00;0.00;74390.16;10580261;27;20006;-78
2023/05/03 16:44:32;;;;;;;3.95;1.75;;;;;;;0.00;0.00;74431.34;10590175;27;25007;-77
2023/05/03 16:49:34;;;;;;;4.05;1.63;;;;;;;0.00;0.00;74426.75;10578692;27;20039;-77
2023/05/03 16:54:36;;;;;;;3.72;1.48;;;;;;;0.00;0.00;74477.13;10587199;27;20080;-77
2023/05/03 16:59:38;;;;;;;3.70;1.10;;;;;;;0.00;0.00;74493.91;10549394;27;20062;-77
2023/05/03 17:04:39;;;;;;;1.38;1.13;;;;;;;0.01;0.00;59042.03;10594374;27;20097;-77
2023/05/03 17:09:41;;;;;;;3.83;1.30;;;;;;;0.01;0.00;59042.03;10581211;27;20095;-77
2023/05/03 17:14:43;;;;;;;6.05;1.33;;;;;;;0.00;0.00;74469.50;10579181;27;20127;-77
2023/05/03 17:19:44;;;;;;;5.03;1.25;;;;;;;0.00;0.00;74490.84;10558094;27;20046;-77
2023/05/03 17:24:46;;;;;;;2.50;1.42;;;;;;;0.00;0.00;74512.22;10593538;27;20043;-76
2023/05/03 17:29:48;;;;;;;1.75;1.13;;;;;;;0.01;0.00;59042.03;10566693;27;20039;-75
2023/05/03 17:34:49;;;;;;;3.10;1.20;;;;;;;0.00;0.00;74512.22;10585486;27;20051;-76
2023/05/03 17:39:51;;;;;;;1.88;1.13;;;;;;;0.01;0.00;59042.03;10561667;27;20088;-76
2023/05/03 17:44:53;;;;;;;2.92;1.25;;;;;;;0.00;0.00;74512.22;10580175;27;20062;-76
2023/05/03 17:49:55;;;;;;;1.95;1.23;;;;;;;0.00;0.00;74718.22;10592667;27;20062;-75
2023/05/03 17:54:57;;;;;;;2.33;1.00;;;;;;;0.00;0.00;74754.84;10591248;27;20126;-76
2023/05/03 17:59:58;;;;;;;1.90;1.13;;;;;;;0.00;0.00;74753.31;10582584;27;20457;-76
2023/05/03 18:05:01;;;;;;;1.80;1.00;;;;;;;0.00;0.00;74763.97;10570161;27;20047;-75
2023/05/03 18:10:04;;;;;;;2.38;0.95;;;;;;;0.00;0.00;74774.66;10518827;28;20043;-76
2023/05/03 18:15:09;;;;;;;1.70;1.08;;;;;;;0.00;0.00;74788.41;10535270;28;20508;-75
2023/05/03 18:20:11;;;;;;;1.98;1.25;;;;;;;0.00;0.00;74808.25;10558868;28;20418;-75
2023/05/03 18:25:13;;;;;;;2.03;1.10;;;;;;;0.00;0.00;74831.13;10528247;28;20101;-75
2023/05/03 18:30:14;;;;;;;1.27;0.77;;;;;;;0.00;0.00;74841.81;10534775;28;20219;-76
2023/05/03 18:35:16;;;;;;;1.13;0.70;;;;;;;0.00;0.00;74864.69;10522805;28;20059;-76
2023/05/03 18:40:18;;;;;;;0.93;0.57;;;;;;;0.00;0.00;74884.53;10534075;28;20183;-76
2023/05/03 18:45:19;;;;;;;1.35;0.63;;;;;;;0.00;0.00;74893.69;10546653;28;20048;-75
2023/05/03 18:50:21;;;;;;;2.45;1.10;;;;;;;0.00;0.00;74901.31;10536756;28;20047;-75
2023/05/03 18:55:24;;;;;;;6.47;1.00;;;;;;;0.00;0.00;74908.94;10538868;28;20492;-75
2023/05/03 19:00:26;;;;;;;1.45;0.90;;;;;;;0.00;0.00;74921.16;10534492;28;20040;-75
2023/05/03 19:05:27;;;;;;;0.90;0.70;;;;;;;0.00;0.00;74933.34;10545579;28;20044;-75
2023/05/03 19:10:29;;;;;;;3.03;0.55;;;;;;;0.00;0.00;74942.50;10540758;28;20038;-75
2023/05/03 19:15:31;;;;;;;5.97;1.35;;;;;;;0.00;0.00;74963.88;10529737;28;20040;-75
2023/05/03 19:20:32;;;;;;;0.82;0.60;;;;;;;0.00;0.00;74969.97;10545774;28;20047;-75
2023/05/03 19:25:34;;;;;;;1.40;0.82;;;;;;;0.00;0.00;74980.66;10550845;28;20043;-75
2023/05/03 19:30:36;;;;;;;1.20;0.68;;;;;;;0.00;0.00;74992.88;10546310;28;20393;-74
2023/05/03 19:35:41;;;;;;;2.10;1.23;;;;;;;0.00;0.00;75003.56;10538060;28;20111;-74
2023/05/03 19:40:54;;;;;;;2.35;0.73;;;;;;;0.00;0.00;75018.81;10560519;28;20036;-74
2023/05/03 19:45:56;;;;;;;2.78;1.00;;;;;;;0.00;0.00;75024.91;10538744;28;20595;-74
2023/05/03 19:50:59;;;;;;;2.33;1.30;;;;;;;0.00;0.00;75040.16;10558841;28;20295;-75
2023/05/03 19:56:05;;;;;;;1.88;1.13;;;;;;;0.00;0.00;75040.16;10560196;28;20485;-74
2023/05/03 20:01:07;;;;;;;6.07;0.77;;;;;;;0.00;0.00;75058.47;10544575;28;20036;-74
2023/05/03 20:06:09;;;;;;;1.58;0.80;;;;;;;0.00;0.00;75064.59;10546952;28;20120;-74
2023/05/03 20:11:11;;;;;;;4.68;1.13;;;;;;;0.00;0.00;75069.16;10532474;28;20051;-74
2023/05/03 20:16:13;;;;;;;2.53;1.00;;;;;;;0.00;0.00;75081.38;10551551;28;20043;-75
2023/05/03 20:21:14;;;;;;;2.20;1.52;;;;;;;0.00;0.00;75092.06;10534344;28;20047;-74
2023/05/03 20:26:17;;;;;;;2.13;1.10;;;;;;;0.00;0.00;75104.25;10546876;28;20269;-74
2023/05/03 20:31:19;;;;;;;0.77;0.68;;;;;;;0.00;0.00;75108.84;10534911;28;20455;-74
2023/05/03 20:36:22;;;;;;;0.90;0.50;;;;;;;0.00;0.00;75119.53;10542922;28;20047;-74
2023/05/03 20:41:25;;;;;;;2.45;1.05;;;;;;;0.00;0.00;75133.25;10551520;28;20518;-74
2023/05/03 20:46:26;;;;;;;1.27;1.00;;;;;;;0.00;0.00;75146.97;10544596;28;20578;-74
2023/05/03 20:51:28;;;;;;;2.38;1.15;;;;;;;0.00;0.00;75156.13;10569402;28;20043;-74
2023/05/03 20:56:32;;;;;;;1.23;0.65;;;;;;;0.00;0.00;75165.28;10569335;28;21959;-74
2023/05/03 21:01:38;;;;;;;0.95;0.70;;;;;;;0.00;0.00;75183.59;10550743;28;20532;-74
2023/05/03 21:06:41;;;;;;;0.70;0.57;;;;;;;0.00;0.00;75183.59;10559725;27;20040;-74
2023/05/03 21:11:45;;;;;;;5.03;1.10;;;;;;;0.00;0.00;75182.06;10552413;28;20035;-76
2023/05/03 21:16:49;;;;;;;2.63;1.23;;;;;;;0.00;0.00;75192.75;10559387;28;20649;-74
2023/05/03 21:21:50;;;;;;;1.65;0.82;;;;;;;0.00;0.00;75201.91;10542716;28;20032;-74
2023/05/03 21:26:52;;;;;;;1.52;1.00;;;;;;;0.00;0.00;75206.50;10540189;28;20047;-74
2023/05/03 21:31:53;;;;;;;1.83;0.90;;;;;;;0.00;0.00;75208.03;10559391;28;20067;-74
2023/05/03 21:36:55;;;;;;;0.90;0.68;;;;;;;0.00;0.00;75215.66;10553368;28;20048;-74
2023/05/03 21:41:57;;;;;;;3.03;0.95;;;;;;;0.00;0.00;75217.19;10538305;28;20071;-74
2023/05/03 21:46:59;;;;;;;1.70;1.13;;;;;;;0.00;0.00;75217.19;10541648;28;20051;-74
2023/05/03 21:52:01;;;;;;;0.70;0.43;;;;;;;0.00;0.00;75221.75;10558674;28;20654;-74
2023/05/03 21:57:03;;;;;;;1.75;0.80;;;;;;;0.00;0.00;75223.28;10559532;27;20055;-74
2023/05/03 22:02:04;;;;;;;0.88;0.60;;;;;;;0.00;0.00;75230.91;10564939;28;20070;-74
2023/05/03 22:07:06;;;;;;;2.25;0.70;;;;;;;0.00;0.00;75235.47;10542126;27;20054;-74
2023/05/03 22:12:07;;;;;;;1.98;1.20;;;;;;;0.00;0.00;75244.63;10531568;28;20130;-74
2023/05/03 22:17:25;;;;;;;1.48;0.75;;;;;;;0.00;0.00;75261.44;10541647;28;20039;-74
2023/05/03 22:22:27;;;;;;;1.75;1.00;;;;;;;0.00;0.00;75266.00;10538122;28;20043;-74
2023/05/03 22:27:29;;;;;;;0.60;0.60;;;;;;;0.00;0.00;75264.47;10557138;27;20056;-74
2023/05/03 22:32:31;;;;;;;0.90;0.88;;;;;;;0.01;0.00;59042.03;10538715;28;20044;-74
2023/05/03 22:37:33;;;;;;;2.13;1.20;;;;;;;0.01;0.00;59042.03;10547917;28;20104;-74
2023/05/03 22:42:35;;;;;;;1.35;0.70;;;;;;;0.01;0.00;59042.03;10542483;28;20180;-74
2023/05/03 22:47:36;;;;;;;1.85;0.88;;;;;;;0.01;0.00;59042.03;10556403;27;20427;-74
2023/05/03 22:52:38;;;;;;;1.95;1.00;;;;;;;0.01;0.00;59042.03;10556031;28;20055;-74
2023/05/03 22:57:40;;;;;;;7.03;1.33;;;;;;;0.01;0.00;59042.03;10545585;27;20063;-74
2023/05/03 23:02:42;;;;;;;0.63;0.63;;;;;;;0.01;0.00;59042.03;10555887;28;20027;-74
2023/05/03 23:07:43;;;;;;;1.75;1.10;;;;;;;0.01;0.00;59042.03;10552259;27;20040;-74
2023/05/03 23:12:45;;;;;;;1.95;0.95;;;;;;;0.01;0.00;59042.03;10558307;28;20036;-74
2023/05/03 23:17:47;;;;;;;2.05;1.00;;;;;;;0.01;0.00;59042.03;10561320;27;20281;-73
2023/05/03 23:22:48;;;;;;;1.17;0.98;;;;;;;0.01;0.00;59042.03;10558994;28;20832;-74
2023/05/03 23:27:50;;;;;;;1.60;0.95;;;;;;;0.01;0.00;59042.03;10553654;28;20047;-74
2023/05/03 23:32:52;;;;;;;5.32;1.73;;;;;;;0.01;0.00;59042.03;10551776;28;20119;-73
2023/05/03 23:37:54;;;;;;;1.98;1.38;;;;;;;0.01;0.00;59042.03;10544098;27;20130;-74
2023/05/03 23:42:55;;;;;;;1.35;1.10;;;;;;;0.01;0.00;59042.03;10554840;28;20526;-74
2023/05/03 23:47:57;;;;;;;3.67;1.60;;;;;;;0.01;0.00;59042.03;10546188;28;20507;-74
2023/05/03 23:53:00;;;;;;;2.10;1.20;;;;;;;0.01;0.00;59042.03;10550067;27;20566;-74
2023/05/03 23:58:01;;;;;;;2.22;1.35;;;;;;;0.01;0.00;59042.03;10553901;28;20538;-74
